createdAt,value
2019-06-07T00:00:39.198Z,18.73
2019-06-07T00:02:39.111Z,20.00
2019-06-07T00:04:42.911Z,18.42
2019-06-07T00:06:47.113Z,18.90
2019-06-07T00:08:51.214Z,18.77
2019-06-07T00:10:55.432Z,21.40
2019-06-07T00:12:59.546Z,21.35
2019-06-07T00:15:04.162Z,19.25
2019-06-07T00:17:10.498Z,18.15
2019-06-07T00:19:16.213Z,17.23
2019-06-07T00:21:20.658Z,17.40
2019-06-07T00:23:25.735Z,19.67
2019-06-07T00:25:29.567Z,16.85
2019-06-07T00:27:33.450Z,15.58
2019-06-07T00:29:37.264Z,12.23
2019-06-07T00:31:41.450Z,15.55
2019-06-07T00:33:45.665Z,14.00
2019-06-07T00:35:49.501Z,12.78
2019-06-07T00:37:53.392Z,13.50
2019-06-07T00:40:13.522Z,11.70
2019-06-07T00:42:03.451Z,13.13
2019-06-07T00:44:07.643Z,13.58
2019-06-07T00:46:14.339Z,10.15
2019-06-07T00:48:27.499Z,11.93
2019-06-07T00:50:24.290Z,10.68
2019-06-07T00:54:34.737Z,10.00
2019-06-07T00:56:38.951Z,13.35
2019-06-07T00:58:43.499Z,9.93
2019-06-07T01:00:47.790Z,11.03
2019-06-07T01:02:52.614Z,10.00
2019-06-07T01:04:56.733Z,8.98
2019-06-07T01:07:00.939Z,8.25
2019-06-07T01:09:07.656Z,9.33
2019-06-07T01:11:11.484Z,10.68
2019-06-07T01:13:17.195Z,11.90
2019-06-07T01:15:29.092Z,9.58
2019-06-07T01:17:43.632Z,12.80
2019-06-07T01:19:41.003Z,11.22
2019-06-07T01:21:44.899Z,8.03
2019-06-07T01:24:08.726Z,10.72
2019-06-07T01:25:54.619Z,8.93
2019-06-07T01:27:58.756Z,8.58
2019-06-07T01:30:02.568Z,10.48
2019-06-07T01:32:06.750Z,8.68
2019-06-07T01:34:10.870Z,7.78
2019-06-07T01:36:17.781Z,7.80
2019-06-07T01:38:22.881Z,7.00
2019-06-07T01:40:30.460Z,7.47
2019-06-07T01:42:32.332Z,9.03
2019-06-07T01:44:36.533Z,9.28
2019-06-07T01:46:40.738Z,9.23
2019-06-07T01:48:49.576Z,8.40
2019-06-07T01:50:50.815Z,7.55
2019-06-07T01:52:54.650Z,8.55
2019-06-07T01:54:59.205Z,8.63
2019-06-07T01:57:03.449Z,8.03
2019-06-07T01:59:09.387Z,9.48
2019-06-07T02:01:13.295Z,8.38
2019-06-07T02:03:18.668Z,7.97
2019-06-07T02:05:25.732Z,7.67
2019-06-07T02:07:32.904Z,8.18
2019-06-07T02:09:34.980Z,7.95
2019-06-07T02:11:38.815Z,8.53
2019-06-07T02:13:42.991Z,10.60
2019-06-07T02:15:47.308Z,7.80
2019-06-07T02:17:51.417Z,10.20
2019-06-07T02:19:55.251Z,9.50
2019-06-07T02:21:59.426Z,13.25
2019-06-07T02:24:03.638Z,14.38
2019-06-07T02:26:07.842Z,12.55
2019-06-07T02:28:27.519Z,13.65
2019-06-07T02:32:28.867Z,14.63
2019-06-07T02:34:35.839Z,15.40
2019-06-07T02:36:41.248Z,15.00
2019-06-07T02:38:42.350Z,14.47
2019-06-07T02:40:46.193Z,11.15
2019-06-07T02:42:50.347Z,14.20
2019-06-07T02:44:54.199Z,12.28
2019-06-07T02:46:58.085Z,17.48
2019-06-07T02:49:02.293Z,15.25
2019-06-07T02:51:06.495Z,15.85
2019-06-07T02:53:10.349Z,16.52
2019-06-07T02:55:14.824Z,19.23
2019-06-07T02:57:19.040Z,20.70
2019-06-07T02:59:48.472Z,20.40
2019-06-07T03:01:35.846Z,23.55
2019-06-07T03:03:39.828Z,19.42
2019-06-07T03:05:44.562Z,22.17
2019-06-07T03:07:49.099Z,19.62
2019-06-07T03:09:53.531Z,21.12
2019-06-07T03:11:59.667Z,22.05
2019-06-07T03:14:04.904Z,23.83
2019-06-07T03:16:10.651Z,30.57
2019-06-07T03:18:36.416Z,26.37
2019-06-07T03:20:41.429Z,30.32
2019-06-07T03:22:45.622Z,29.07
2019-06-07T03:24:51.367Z,26.02
2019-06-07T03:29:02.980Z,33.98
2019-06-07T03:31:07.183Z,31.75
2019-06-07T03:33:11.394Z,31.50
2019-06-07T03:35:15.294Z,31.10
2019-06-07T03:37:19.426Z,30.20
2019-06-07T03:39:25.283Z,36.15
2019-06-07T03:41:38.625Z,30.85
2019-06-07T03:43:39.932Z,31.82
2019-06-07T03:45:41.843Z,35.43
2019-06-07T03:47:46.010Z,35.63
2019-06-07T03:49:50.212Z,34.45
2019-06-07T03:51:54.321Z,47.60
2019-06-07T03:53:58.441Z,43.65
2019-06-07T03:56:02.962Z,38.50
2019-06-07T04:00:12.907Z,37.35
2019-06-07T04:02:16.770Z,51.18
2019-06-07T04:04:20.571Z,52.83
2019-06-07T04:06:25.666Z,65.60
2019-06-07T04:08:30.882Z,45.88
2019-06-07T04:10:55.274Z,63.30
2019-06-07T04:12:44.238Z,54.85
2019-06-07T04:14:48.550Z,54.48
2019-06-07T04:16:52.607Z,54.20
2019-06-07T04:18:56.772Z,45.80
2019-06-07T04:21:00.887Z,51.53
2019-06-07T04:23:25.055Z,47.00
2019-06-07T04:25:13.015Z,41.80
2019-06-07T04:27:17.201Z,47.88
2019-06-07T04:30:01.484Z,44.30
2019-06-07T04:31:28.372Z,40.03
2019-06-07T04:33:37.059Z,39.13
2019-06-07T04:35:43.131Z,39.05
2019-06-07T04:37:47.061Z,46.98
2019-06-07T04:39:51.242Z,45.78
2019-06-07T04:41:57.509Z,44.70
2019-06-07T04:44:02.786Z,42.10
2019-06-07T04:46:06.619Z,41.10
2019-06-07T04:48:12.749Z,42.00
2019-06-07T04:50:16.685Z,41.47
2019-06-07T04:52:20.518Z,39.33
2019-06-07T04:54:24.671Z,35.35
2019-06-07T04:56:29.985Z,35.43
2019-06-07T04:58:35.707Z,38.13
2019-06-07T05:00:53.242Z,35.33
2019-06-07T05:02:45.405Z,35.17
2019-06-07T05:04:49.617Z,32.28
2019-06-07T05:06:53.532Z,31.93
2019-06-07T05:08:58.317Z,33.83
2019-06-07T05:11:02.147Z,32.60
2019-06-07T05:13:06.381Z,30.82
2019-06-07T05:15:10.365Z,31.90
2019-06-07T05:17:14.179Z,26.83
2019-06-07T05:19:18.073Z,28.00
2019-06-07T05:21:21.878Z,26.80
2019-06-07T05:23:59.887Z,25.53
2019-06-07T05:25:34.062Z,24.70
2019-06-07T05:27:42.401Z,22.03
2019-06-07T05:30:05.654Z,20.73
2019-06-07T05:31:50.526Z,22.33
2019-06-07T05:33:54.067Z,23.57
2019-06-07T05:35:57.927Z,21.50
2019-06-07T05:38:02.129Z,19.70
2019-06-07T05:40:08.388Z,20.50
2019-06-07T05:42:12.481Z,17.40
2019-06-07T05:44:16.017Z,17.37
2019-06-07T05:46:21.471Z,20.90
2019-06-07T05:48:26.794Z,15.67
2019-06-07T05:50:41.468Z,13.77
2019-06-07T05:52:39.549Z,13.43
2019-06-07T05:54:43.158Z,14.23
2019-06-07T05:56:46.954Z,13.20
2019-06-07T05:58:50.503Z,13.90
2019-06-07T06:00:54.052Z,14.10
2019-06-07T06:03:05.372Z,12.67
2019-06-07T06:05:02.967Z,13.87
2019-06-07T06:07:07.061Z,12.23
2019-06-07T06:09:13.887Z,9.97
2019-06-07T06:11:16.246Z,11.77
2019-06-07T06:13:20.105Z,9.17
2019-06-07T06:15:41.443Z,10.40
2019-06-07T06:17:28.883Z,8.10
2019-06-07T06:19:32.739Z,9.47
2019-06-07T06:21:36.533Z,7.97
2019-06-07T06:23:42.684Z,9.53
2019-06-07T06:25:53.619Z,10.77
2019-06-07T06:28:12.115Z,10.83
2019-06-07T06:29:56.764Z,10.50
2019-06-07T06:32:40.522Z,10.30
2019-06-07T06:34:05.735Z,11.57
2019-06-07T06:36:09.621Z,11.37
2019-06-07T06:38:13.718Z,9.83
2019-06-07T06:40:17.678Z,9.43
2019-06-07T06:42:21.534Z,13.17
2019-06-07T06:44:25.085Z,10.83
2019-06-07T06:46:38.993Z,11.10
2019-06-07T06:48:34.186Z,12.20
2019-06-07T06:50:38.729Z,11.07
2019-06-07T06:52:45.187Z,11.60
2019-06-07T06:54:55.366Z,11.47
2019-06-07T06:56:53.114Z,9.90
2019-06-07T06:59:35.229Z,10.67
2019-06-07T07:01:06.833Z,9.73
2019-06-07T07:03:47.751Z,10.47
2019-06-07T07:05:13.610Z,11.27
2019-06-07T07:07:17.923Z,10.70
2019-06-07T07:09:23.112Z,13.37
2019-06-07T07:11:26.635Z,10.83
2019-06-07T07:13:30.610Z,11.30
2019-06-07T07:15:34.375Z,12.73
2019-06-07T07:17:50.467Z,13.47
2019-06-07T07:19:47.956Z,12.60
2019-06-07T07:21:50.593Z,12.80
2019-06-07T07:24:19.441Z,11.73
2019-06-07T07:26:00.360Z,11.57
2019-06-07T07:28:04.813Z,13.60
2019-06-07T07:30:36.287Z,12.33
2019-06-07T07:32:15.868Z,13.23
2019-06-07T07:34:33.583Z,12.43
2019-06-07T07:36:38.942Z,11.73
2019-06-07T07:38:29.969Z,12.03
2019-06-07T07:40:57.081Z,12.43
2019-06-07T07:42:39.098Z,11.77
2019-06-07T07:44:43.255Z,14.63
2019-06-07T07:46:51.176Z,13.10
2019-06-07T07:48:54.702Z,12.67
2019-06-07T07:51:01.150Z,11.77
2019-06-07T07:53:05.414Z,11.77
2019-06-07T07:55:09.325Z,11.07
2019-06-07T07:57:13.267Z,12.90
2019-06-07T07:59:16.796Z,13.50
2019-06-07T08:01:20.354Z,13.73
2019-06-07T08:03:24.249Z,11.50
2019-06-07T08:05:41.991Z,11.37
2019-06-07T08:07:33.443Z,12.97
2019-06-07T08:09:37.315Z,11.13
2019-06-07T08:11:40.827Z,11.23
2019-06-07T08:13:45.673Z,12.47
2019-06-07T08:15:53.353Z,11.37
2019-06-07T08:17:58.153Z,9.93
2019-06-07T08:20:02.843Z,13.60
2019-06-07T08:22:05.186Z,12.57
2019-06-07T08:24:08.717Z,11.57
2019-06-07T08:26:12.583Z,12.50
2019-06-07T08:28:16.440Z,12.20
2019-06-07T08:30:50.093Z,11.90
2019-06-07T08:32:25.804Z,11.90
2019-06-07T08:34:29.724Z,11.03
2019-06-07T08:36:42.023Z,12.40
2019-06-07T08:38:48.002Z,13.33
2019-06-07T08:40:44.715Z,15.73
2019-06-07T08:43:10.975Z,11.80
2019-06-07T08:44:57.196Z,12.80
2019-06-07T08:47:16.728Z,10.57
2019-06-07T08:49:05.332Z,11.73
2019-06-07T08:51:09.232Z,14.27
2019-06-07T08:53:12.838Z,9.87
2019-06-07T08:55:17.071Z,10.20
2019-06-07T08:57:22.034Z,10.90
2019-06-07T08:59:25.994Z,12.43
2019-06-07T09:01:29.784Z,10.57
2019-06-07T09:03:33.308Z,10.20
2019-06-07T09:05:37.191Z,25.03
2019-06-07T09:07:41.100Z,8.43
2019-06-07T09:09:44.994Z,9.03
2019-06-07T09:11:48.548Z,8.83
2019-06-07T09:13:54.498Z,8.10
2019-06-07T09:16:03.600Z,8.77
2019-06-07T09:18:37.863Z,8.00
2019-06-07T09:20:35.238Z,8.33
2019-06-07T09:22:16.734Z,8.23
2019-06-07T09:24:20.294Z,6.90
2019-06-07T09:26:24.225Z,7.80
2019-06-07T09:28:28.640Z,10.47
2019-06-07T09:30:43.298Z,8.50
2019-06-07T09:32:47.116Z,9.27
2019-06-07T09:34:51.010Z,8.50
2019-06-07T09:36:58.158Z,8.83
2019-06-07T09:39:06.477Z,9.33
2019-06-07T09:41:07.643Z,8.13
2019-06-07T09:43:59.901Z,9.07
2019-06-07T09:45:17.909Z,9.63
2019-06-07T09:47:31.815Z,9.57
2019-06-07T09:49:32.598Z,8.03
2019-06-07T09:51:32.298Z,7.60
2019-06-07T09:53:36.218Z,7.80
2019-06-07T09:55:40.088Z,6.50
2019-06-07T09:57:43.900Z,6.87
2019-06-07T09:59:47.796Z,7.77
2019-06-07T10:01:51.706Z,5.80
2019-06-07T10:03:55.532Z,6.67
2019-06-07T10:06:00.340Z,7.13
2019-06-07T10:08:25.900Z,7.27
2019-06-07T10:12:15.635Z,6.80
2019-06-07T10:14:19.544Z,7.77
2019-06-07T10:16:23.472Z,7.30
2019-06-07T10:18:27.257Z,8.10
2019-06-07T10:20:30.809Z,9.60
2019-06-07T10:22:34.669Z,6.17
2019-06-07T10:24:38.185Z,6.67
2019-06-07T10:26:41.742Z,5.40
2019-06-07T10:28:45.555Z,6.17
2019-06-07T10:30:49.458Z,5.43
2019-06-07T10:32:52.993Z,4.80
2019-06-07T10:34:56.531Z,5.77
2019-06-07T10:37:03.311Z,6.97
2019-06-07T10:39:08.958Z,8.87
2019-06-07T10:41:12.882Z,6.10
2019-06-07T10:43:16.802Z,7.43
2019-06-07T10:45:20.432Z,7.60
2019-06-07T10:47:24.283Z,7.33
2019-06-07T10:49:27.810Z,9.40
2019-06-07T10:51:31.786Z,8.53
2019-06-07T10:53:35.736Z,5.90
2019-06-07T10:55:39.232Z,6.50
2019-06-07T10:57:43.152Z,6.07
2019-06-07T10:59:46.703Z,4.80
2019-06-07T11:01:50.607Z,5.17
2019-06-07T11:03:54.162Z,4.40
2019-06-07T11:05:58.006Z,5.43
2019-06-07T11:08:01.905Z,4.20
2019-06-07T11:10:14.778Z,4.27
2019-06-07T11:12:15.109Z,7.57
2019-06-07T11:14:19.264Z,5.80
2019-06-07T11:16:22.812Z,4.70
2019-06-07T11:18:26.662Z,4.67
2019-06-07T11:20:30.468Z,4.17
2019-06-07T11:22:34.376Z,4.23
2019-06-07T11:24:37.902Z,4.40
2019-06-07T11:26:41.786Z,5.00
2019-06-07T11:28:45.427Z,5.43
2019-06-07T11:30:49.280Z,5.70
2019-06-07T11:32:53.180Z,5.53
2019-06-07T11:34:56.744Z,7.03
2019-06-07T11:37:00.568Z,5.03
2019-06-07T11:39:06.512Z,5.40
2019-06-07T11:41:10.036Z,6.00
2019-06-07T11:43:14.943Z,5.73
2019-06-07T11:45:19.069Z,6.17
2019-06-07T11:47:22.966Z,4.73
2019-06-07T11:49:26.867Z,6.23
2019-06-07T11:51:30.684Z,5.30
2019-06-07T11:53:34.217Z,3.93
2019-06-07T11:55:38.091Z,4.03
2019-06-07T11:57:41.878Z,5.43
2019-06-07T11:59:45.816Z,5.67
2019-06-07T12:01:49.369Z,5.43
2019-06-07T12:03:53.205Z,5.60
2019-06-07T12:05:57.108Z,5.90
2019-06-07T12:08:00.902Z,5.77
2019-06-07T12:10:10.764Z,5.40
2019-06-07T12:12:14.772Z,5.70
2019-06-07T12:14:19.344Z,4.27
2019-06-07T12:16:23.394Z,5.27
2019-06-07T12:18:27.297Z,4.13
2019-06-07T12:20:31.194Z,4.73
2019-06-07T12:22:34.743Z,4.10
2019-06-07T12:24:38.699Z,4.70
2019-06-07T12:26:42.606Z,3.20
2019-06-07T12:28:46.526Z,6.37
2019-06-07T12:30:50.414Z,5.07
2019-06-07T12:32:54.219Z,5.37
2019-06-07T12:34:57.777Z,4.17
2019-06-07T12:37:01.612Z,4.43
2019-06-07T12:39:07.874Z,4.97
2019-06-07T12:41:11.994Z,4.60
2019-06-07T12:43:16.739Z,4.00
2019-06-07T12:45:41.331Z,3.27
2019-06-07T12:47:26.263Z,3.33
2019-06-07T12:49:30.189Z,5.00
2019-06-07T12:51:34.075Z,5.07
2019-06-07T12:53:37.971Z,5.60
2019-06-07T12:55:41.519Z,4.30
2019-06-07T12:57:45.390Z,4.27
2019-06-07T12:59:49.281Z,4.00
2019-06-07T13:01:53.196Z,4.57
2019-06-07T13:03:57.091Z,4.07
2019-06-07T13:06:00.628Z,4.37
2019-06-07T13:08:04.633Z,4.50
2019-06-07T13:10:10.027Z,5.07
2019-06-07T13:12:13.844Z,3.80
2019-06-07T13:14:17.799Z,3.87
2019-06-07T13:16:22.094Z,5.10
2019-06-07T13:18:25.651Z,3.97
2019-06-07T13:20:29.666Z,6.77
2019-06-07T13:22:33.468Z,6.27
2019-06-07T13:24:36.987Z,3.80
2019-06-07T13:26:40.883Z,4.03
2019-06-07T13:28:44.771Z,5.40
2019-06-07T13:30:48.565Z,3.60
2019-06-07T13:32:52.124Z,4.37
2019-06-07T13:34:56.005Z,4.90
2019-06-07T13:36:59.514Z,3.57
2019-06-07T13:39:03.128Z,4.30
2019-06-07T13:41:06.694Z,4.77
2019-06-07T13:43:10.583Z,4.03
2019-06-07T13:45:15.205Z,4.27
2019-06-07T13:47:19.046Z,5.30
2019-06-07T13:49:23.705Z,5.03
2019-06-07T13:51:28.895Z,3.17
2019-06-07T13:53:32.867Z,7.27
2019-06-07T13:55:36.677Z,4.47
2019-06-07T13:57:40.238Z,5.10
2019-06-07T13:59:44.069Z,6.87
2019-06-07T14:01:47.986Z,6.90
2019-06-07T14:03:51.886Z,4.17
2019-06-07T14:05:55.409Z,4.83
2019-06-07T14:07:58.964Z,4.93
2019-06-07T14:10:03.146Z,3.17
2019-06-07T14:12:06.648Z,3.20
2019-06-07T14:14:10.501Z,4.73
2019-06-07T14:16:14.440Z,3.93
2019-06-07T14:18:18.314Z,4.13
2019-06-07T14:20:26.624Z,4.00
2019-06-07T14:22:28.920Z,4.80
2019-06-07T14:24:32.900Z,4.67
2019-06-07T14:26:36.799Z,4.07
2019-06-07T14:28:40.701Z,3.87
2019-06-07T14:30:44.608Z,4.87
2019-06-07T14:32:48.515Z,2.97
2019-06-07T14:34:52.418Z,4.30
2019-06-07T14:36:56.331Z,4.77
2019-06-07T14:38:59.868Z,3.67
2019-06-07T14:41:03.417Z,3.57
2019-06-07T14:43:07.221Z,3.90
2019-06-07T14:45:11.796Z,4.73
2019-06-07T14:47:15.760Z,3.43
2019-06-07T14:49:19.642Z,3.83
2019-06-07T14:51:24.179Z,3.73
2019-06-07T14:53:28.735Z,3.40
2019-06-07T14:55:32.989Z,3.20
2019-06-07T14:57:38.036Z,3.27
2019-06-07T14:59:41.563Z,10.40
2019-06-07T15:01:47.002Z,13.13
2019-06-07T15:03:50.887Z,12.33
2019-06-07T15:05:54.806Z,6.97
2019-06-07T15:07:58.728Z,10.23
2019-06-07T15:10:02.711Z,12.93
2019-06-07T15:12:06.625Z,12.93
2019-06-07T15:14:10.540Z,13.63
2019-06-07T15:16:14.073Z,9.77
2019-06-07T15:18:17.919Z,7.17
2019-06-07T15:20:21.636Z,8.77
2019-06-07T15:22:25.613Z,6.50
2019-06-07T15:24:33.953Z,8.43
2019-06-07T15:26:34.697Z,7.27
2019-06-07T15:28:38.567Z,6.93
2019-06-07T15:30:42.135Z,5.73
2019-06-07T15:32:45.661Z,6.13
2019-06-07T15:34:49.618Z,8.57
2019-06-07T15:36:53.471Z,5.30
2019-06-07T15:38:58.087Z,5.10
2019-06-07T15:41:02.025Z,4.90
2019-06-07T15:43:05.903Z,3.40
2019-06-07T15:45:10.347Z,4.70
2019-06-07T15:47:14.233Z,6.27
2019-06-07T15:49:18.133Z,6.33
2019-06-07T15:51:22.031Z,3.77
2019-06-07T15:53:25.591Z,10.53
2019-06-07T15:55:31.891Z,5.77
2019-06-07T15:57:37.239Z,3.50
2019-06-07T15:59:41.567Z,4.83
2019-06-07T16:01:45.560Z,3.17
2019-06-07T16:03:49.480Z,4.73
2019-06-07T16:05:53.387Z,4.70
2019-06-07T16:07:57.279Z,5.43
2019-06-07T16:10:01.186Z,6.07
2019-06-07T16:12:04.870Z,9.33
2019-06-07T16:14:08.818Z,7.27
2019-06-07T16:16:12.880Z,8.17
2019-06-07T16:18:16.898Z,6.83
2019-06-07T16:20:21.013Z,4.87
2019-06-07T16:22:24.915Z,5.33
2019-06-07T16:24:28.470Z,7.87
2019-06-07T16:26:31.991Z,8.43
2019-06-07T16:28:36.258Z,4.73
2019-06-07T16:30:40.676Z,4.97
2019-06-07T16:32:46.229Z,7.20
2019-06-07T16:34:51.119Z,8.90
2019-06-07T16:36:55.034Z,4.50
2019-06-07T16:38:58.574Z,2.97
2019-06-07T16:41:02.424Z,5.80
2019-06-07T16:43:16.837Z,5.40
2019-06-07T16:45:12.365Z,4.30
2019-06-07T16:47:15.897Z,2.93
2019-06-07T16:49:24.011Z,6.90
2019-06-07T16:51:27.984Z,3.90
2019-06-07T16:53:33.947Z,5.87
2019-06-07T16:55:40.493Z,1.27
2019-06-07T16:57:45.268Z,3.83
2019-06-07T16:59:50.720Z,2.97
2019-06-07T17:01:54.113Z,4.53
2019-06-07T17:03:57.984Z,2.83
2019-06-07T17:06:01.930Z,6.10
2019-06-07T17:08:05.517Z,2.57
2019-06-07T17:10:10.089Z,1.13
2019-06-07T17:12:13.965Z,3.00
2019-06-07T17:14:17.813Z,2.20
2019-06-07T17:16:21.715Z,2.77
2019-06-07T17:18:25.607Z,2.73
2019-06-07T17:20:29.521Z,2.10
2019-06-07T17:22:33.441Z,1.33
2019-06-07T17:24:36.977Z,1.87
2019-06-07T17:26:41.626Z,5.53
2019-06-07T17:28:45.801Z,4.23
2019-06-07T17:30:50.302Z,2.20
2019-06-07T17:32:59.260Z,2.40
2019-06-07T17:34:59.937Z,2.10
2019-06-07T17:37:03.456Z,1.27
2019-06-07T17:39:08.776Z,1.57
2019-06-07T17:41:12.693Z,2.60
2019-06-07T17:43:16.582Z,1.97
2019-06-07T17:45:22.121Z,3.90
2019-06-07T17:47:26.027Z,1.97
2019-06-07T17:49:29.933Z,1.43
2019-06-07T17:51:33.730Z,1.60
2019-06-07T17:53:37.335Z,0.83
2019-06-07T17:55:42.104Z,1.60
2019-06-07T17:57:46.556Z,2.47
2019-06-07T17:59:50.627Z,1.00
2019-06-07T18:02:13.608Z,1.97
2019-06-07T18:03:59.563Z,1.00
2019-06-07T18:06:04.030Z,2.43
2019-06-07T18:08:07.952Z,1.27
2019-06-07T18:10:13.595Z,1.47
2019-06-07T18:12:17.519Z,2.20
2019-06-07T18:14:21.131Z,1.40
2019-06-07T18:16:25.007Z,2.83
2019-06-07T18:18:28.914Z,4.37
2019-06-07T18:20:33.289Z,1.67
2019-06-07T18:22:36.803Z,1.53
2019-06-07T18:24:41.314Z,1.50
2019-06-07T18:26:46.382Z,1.13
2019-06-07T18:28:50.602Z,2.33
2019-06-07T18:30:54.921Z,1.60
2019-06-07T18:32:59.247Z,1.17
2019-06-07T18:35:03.123Z,2.53
2019-06-07T18:37:06.740Z,2.50
2019-06-07T18:39:10.260Z,5.63
2019-06-07T18:41:14.127Z,3.07
2019-06-07T18:43:17.677Z,4.60
2019-06-07T18:45:21.622Z,1.07
2019-06-07T18:47:25.536Z,2.07
2019-06-07T18:49:29.440Z,0.80
2019-06-07T18:51:33.242Z,1.97
2019-06-07T18:53:37.146Z,1.30
2019-06-07T18:55:41.054Z,2.47
2019-06-07T18:57:45.321Z,0.90
2019-06-07T18:59:50.194Z,2.70
2019-06-07T19:01:53.811Z,6.77
2019-06-07T19:03:58.231Z,1.43
2019-06-07T19:06:03.068Z,2.87
2019-06-07T19:08:06.580Z,2.17
2019-06-07T19:10:12.879Z,2.40
2019-06-07T19:12:16.795Z,3.03
2019-06-07T19:14:36.090Z,1.77
2019-06-07T19:16:26.352Z,1.63
2019-06-07T19:18:30.258Z,1.53
2019-06-07T19:20:33.804Z,1.00
2019-06-07T19:22:37.750Z,1.03
2019-06-07T19:24:41.561Z,1.00
2019-06-07T19:26:45.468Z,1.37
2019-06-07T19:28:50.553Z,1.00
2019-06-07T19:30:54.974Z,2.37
2019-06-07T19:32:59.680Z,2.30
2019-06-07T19:35:03.953Z,1.60
2019-06-07T19:37:07.497Z,1.60
2019-06-07T19:39:11.352Z,2.63
2019-06-07T19:41:19.710Z,3.10
2019-06-07T19:43:20.690Z,2.03
2019-06-07T19:45:30.210Z,1.90
2019-06-07T19:47:29.855Z,4.40
2019-06-07T19:49:33.752Z,1.13
2019-06-07T19:51:38.190Z,2.40
2019-06-07T19:53:42.904Z,2.10
2019-06-07T19:55:46.799Z,2.40
2019-06-07T19:57:53.383Z,2.23
2019-06-07T19:59:57.508Z,4.10
2019-06-07T20:02:04.145Z,2.80
2019-06-07T20:04:08.049Z,2.63
2019-06-07T20:06:11.873Z,1.63
2019-06-07T20:08:15.756Z,1.00
2019-06-07T20:10:19.936Z,2.07
2019-06-07T20:12:23.790Z,2.80
2019-06-07T20:14:27.672Z,3.63
2019-06-07T20:16:31.204Z,1.70
2019-06-07T20:18:34.730Z,3.33
2019-06-07T20:20:38.574Z,1.23
2019-06-07T20:22:42.480Z,1.67
2019-06-07T20:24:47.198Z,1.73
2019-06-07T20:26:51.099Z,0.93
2019-06-07T20:28:54.694Z,1.47
2019-06-07T20:31:01.947Z,3.30
2019-06-07T20:33:06.166Z,2.03
2019-06-07T20:35:10.304Z,1.80
2019-06-07T20:37:14.124Z,1.97
2019-06-07T20:39:17.652Z,1.70
2019-06-07T20:41:21.534Z,1.10
2019-06-07T20:43:25.425Z,2.73
2019-06-07T20:45:33.645Z,1.97
2019-06-07T20:47:34.611Z,1.73
2019-06-07T20:49:38.466Z,2.13
2019-06-07T20:51:42.405Z,2.23
2019-06-07T20:53:45.940Z,2.70
2019-06-07T20:55:49.470Z,1.40
2019-06-07T20:57:53.410Z,1.97
2019-06-07T20:59:56.957Z,2.17
2019-06-07T21:02:00.873Z,1.87
2019-06-07T21:04:05.139Z,1.17
2019-06-07T21:06:09.869Z,2.80
2019-06-07T21:08:13.829Z,4.00
2019-06-07T21:10:18.900Z,1.80
2019-06-07T21:12:22.442Z,1.77
2019-06-07T21:14:26.364Z,1.70
2019-06-07T21:16:30.259Z,1.63
2019-06-07T21:18:34.182Z,2.03
2019-06-07T21:20:37.740Z,1.00
2019-06-07T21:22:41.587Z,1.03
2019-06-07T21:24:45.478Z,5.37
2019-06-07T21:26:52.973Z,2.27
2019-06-07T21:28:54.673Z,1.10
2019-06-07T21:30:58.446Z,1.90
2019-06-07T21:33:03.569Z,1.30
2019-06-07T21:35:12.177Z,2.70
2019-06-07T21:37:18.750Z,2.17
2019-06-07T21:39:22.654Z,1.03
2019-06-07T21:41:26.649Z,4.93
2019-06-07T21:43:30.572Z,3.47
2019-06-07T21:45:34.464Z,2.20
2019-06-07T21:47:38.282Z,2.30
2019-06-07T21:49:42.194Z,2.70
2019-06-07T21:51:47.011Z,2.20
2019-06-07T21:53:50.570Z,2.07
2019-06-07T21:55:54.402Z,2.93
2019-06-07T21:57:58.309Z,1.43
2019-06-07T22:00:03.342Z,1.83
2019-06-07T22:02:07.575Z,2.60
2019-06-07T22:04:11.753Z,1.50
2019-06-07T22:06:16.081Z,1.30
2019-06-07T22:08:19.992Z,2.37
2019-06-07T22:10:23.528Z,3.77
2019-06-07T22:12:27.400Z,1.80
2019-06-07T22:14:31.296Z,1.97
2019-06-07T22:16:34.828Z,3.73
2019-06-07T22:18:38.701Z,2.60
2019-06-07T22:20:42.238Z,3.07
2019-06-07T22:22:46.091Z,1.53
2019-06-07T22:24:50.004Z,2.57
2019-06-07T22:26:53.908Z,3.87
2019-06-07T22:28:57.927Z,3.47
2019-06-07T22:31:03.628Z,2.53
2019-06-07T22:33:08.686Z,3.27
2019-06-07T22:35:13.022Z,2.53
2019-06-07T22:37:20.098Z,1.87
2019-06-07T22:39:22.558Z,1.97
2019-06-07T22:41:26.114Z,2.67
2019-06-07T22:43:29.959Z,2.13
2019-06-07T22:45:33.882Z,4.30
2019-06-07T22:47:39.373Z,1.40
2019-06-07T22:49:42.907Z,2.73
2019-06-07T22:51:46.809Z,5.10
2019-06-07T22:53:50.344Z,1.67
2019-06-07T22:55:57.361Z,3.80
2019-06-07T22:58:00.994Z,1.50
2019-06-07T23:00:10.399Z,2.30
2019-06-07T23:02:12.642Z,2.53
2019-06-07T23:04:16.764Z,5.47
2019-06-07T23:06:20.600Z,3.13
2019-06-07T23:08:24.126Z,2.00
2019-06-07T23:10:28.015Z,2.63
2019-06-07T23:12:31.918Z,2.93
2019-06-07T23:14:35.814Z,2.27
2019-06-07T23:16:54.351Z,2.67
2019-06-07T23:18:44.689Z,2.60
2019-06-07T23:20:48.215Z,3.03
2019-06-07T23:22:52.352Z,4.83
2019-06-07T23:24:56.269Z,2.57
2019-06-07T23:27:00.170Z,4.63
2019-06-07T23:29:04.283Z,1.70
2019-06-07T23:31:07.811Z,2.47
2019-06-07T23:33:13.024Z,4.53
2019-06-07T23:35:19.066Z,1.90
2019-06-07T23:37:22.973Z,3.27
2019-06-07T23:39:26.859Z,2.63
2019-06-07T23:41:30.685Z,1.80
2019-06-07T23:43:34.587Z,5.33
2019-06-07T23:45:38.117Z,2.73
2019-06-07T23:47:41.997Z,6.23
2019-06-07T23:49:45.892Z,4.07
2019-06-07T23:51:49.694Z,4.70
2019-06-07T23:53:53.607Z,3.20
2019-06-07T23:55:57.525Z,2.47
2019-06-07T23:58:01.423Z,3.23
